Terminal Aerodrome Forecast
Issued by NWS

Home | Current Version | Previous Version | Text Only | Print | Product List | Glossary On
Versions: 1 2 3 4 5 6 7 8 9 10 11 12 13 14 15 16 17
000
FTUS42 TJSJ 281137
TAFJPS
TAF
TJPS 281137Z 2812/2912 05005KT P6SM VCSH SCT020
     FM281400 14009KT P6SM VCSH SCT030 SCT060
     FM281700 14012G19KT P6SM VCTS SCT030CB SCT060 SCT090
     FM282300 09008KT P6SM FEW030 SCT060
     FM290100 05005KT P6SM FEW030=

USA.gov is the U.S. government's official web portal to all federal, state and local government web resources and services.